createdAt,value
2024-02-13T00:01:19.086Z,60.40
2024-02-13T00:03:47.688Z,60.40
2024-02-13T00:06:15.630Z,60.30
2024-02-13T00:08:45.819Z,60.40
2024-02-13T00:11:15.378Z,60.40
2024-02-13T00:13:47.937Z,60.30
2024-02-13T00:16:19.379Z,60.40
2024-02-13T00:18:49.348Z,60.30
2024-02-13T00:21:17.095Z,60.30
2024-02-13T00:23:44.502Z,60.20
2024-02-13T00:26:12.256Z,60.10
2024-02-13T00:28:40.063Z,60.10
2024-02-13T00:31:09.122Z,60.10
2024-02-13T00:33:37.015Z,60.10
2024-02-13T00:36:05.341Z,60.10
2024-02-13T00:38:32.816Z,59.90
2024-02-13T00:41:04.192Z,59.80
2024-02-13T00:43:32.536Z,59.80
2024-02-13T00:45:59.816Z,59.80
2024-02-13T00:48:28.309Z,59.70
2024-02-13T00:50:56.621Z,59.60
2024-02-13T00:53:26.002Z,59.60
2024-02-13T00:55:53.933Z,59.60
2024-02-13T00:58:23.925Z,59.60
2024-02-13T01:00:51.395Z,59.50
2024-02-13T01:03:18.743Z,59.50
2024-02-13T01:05:46.200Z,59.50
2024-02-13T01:08:13.733Z,59.60
2024-02-13T01:10:41.022Z,59.60
2024-02-13T01:13:08.937Z,59.50
2024-02-13T01:15:36.468Z,59.50
2024-02-13T01:18:04.652Z,59.40
2024-02-13T01:20:32.364Z,59.50
2024-02-13T01:22:59.834Z,59.50
2024-02-13T01:25:27.210Z,59.50
2024-02-13T01:27:56.778Z,59.40
2024-02-13T01:30:25.016Z,59.40
2024-02-13T01:32:52.713Z,59.40
2024-02-13T01:35:20.412Z,59.50
2024-02-13T01:37:51.240Z,59.40
2024-02-13T01:40:19.110Z,59.40
2024-02-13T01:42:50.022Z,59.40
2024-02-13T01:45:18.285Z,59.30
2024-02-13T01:47:48.921Z,59.30
2024-02-13T01:50:19.676Z,59.30
2024-02-13T01:52:50.115Z,59.30
2024-02-13T01:55:21.513Z,59.30
2024-02-13T01:57:50.249Z,59.30
2024-02-13T02:00:18.559Z,59.20
2024-02-13T02:02:50.744Z,59.20
2024-02-13T02:05:18.402Z,59.20
2024-02-13T02:07:46.438Z,59.20
2024-02-13T02:10:14.713Z,59.30
2024-02-13T02:12:42.765Z,59.20
2024-02-13T02:15:16.415Z,59.30
2024-02-13T02:17:54.522Z,59.30
2024-02-13T02:20:25.923Z,59.20
2024-02-13T02:22:53.607Z,59.10
2024-02-13T02:25:23.290Z,59.30
2024-02-13T02:27:51.094Z,59.30
2024-02-13T02:30:19.398Z,59.30
2024-02-13T02:32:48.970Z,59.20
2024-02-13T02:35:19.801Z,59.20
2024-02-13T02:37:52.344Z,59.20
2024-02-13T02:40:20.104Z,59.20
2024-02-13T02:42:50.590Z,59.20
2024-02-13T02:45:17.928Z,59.20
2024-02-13T02:47:48.109Z,59.20
2024-02-13T02:50:15.619Z,59.20
2024-02-13T02:52:46.603Z,59.20
2024-02-13T02:55:14.104Z,59.20
2024-02-13T02:57:41.544Z,59.20
2024-02-13T03:00:11.709Z,59.10
2024-02-13T03:02:39.635Z,59.10
2024-02-13T03:05:08.101Z,59.10
2024-02-13T03:07:35.461Z,59.20
2024-02-13T03:10:04.043Z,59.20
2024-02-13T03:12:31.388Z,59.20
2024-02-13T03:14:58.861Z,59.20
2024-02-13T03:17:26.176Z,59.10
2024-02-13T03:19:53.459Z,59.10
2024-02-13T03:22:21.280Z,59.10
2024-02-13T03:24:48.521Z,59.10
2024-02-13T03:27:18.430Z,59.10
2024-02-13T03:29:45.945Z,59.00
2024-02-13T03:32:13.466Z,58.90
2024-02-13T03:34:40.754Z,58.90
2024-02-13T03:37:09.913Z,58.90
2024-02-13T03:39:37.802Z,58.90
2024-02-13T03:42:05.840Z,58.90
2024-02-13T03:44:33.294Z,58.90
2024-02-13T03:47:00.859Z,58.90
2024-02-13T03:49:28.636Z,58.90
2024-02-13T03:51:56.253Z,58.90
2024-02-13T03:54:23.597Z,58.90
2024-02-13T03:56:50.878Z,58.90
2024-02-13T03:59:18.343Z,58.80
2024-02-13T04:01:46.033Z,58.90
2024-02-13T04:04:13.216Z,58.80
2024-02-13T04:06:40.816Z,58.80
2024-02-13T04:09:08.872Z,58.80
2024-02-13T04:11:37.039Z,58.80
2024-02-13T04:14:04.525Z,58.70
2024-02-13T04:16:31.985Z,58.80
2024-02-13T04:19:00.618Z,58.80
2024-02-13T04:21:27.928Z,58.70
2024-02-13T04:23:55.236Z,58.70
2024-02-13T04:26:31.198Z,58.60
2024-02-13T04:29:04.772Z,58.60
2024-02-13T04:31:32.122Z,58.60
2024-02-13T04:33:59.800Z,58.60
2024-02-13T04:36:27.408Z,58.60
2024-02-13T04:38:54.553Z,58.40
2024-02-13T04:41:21.738Z,58.40
2024-02-13T04:43:49.041Z,58.40
2024-02-13T04:46:17.775Z,58.30
2024-02-13T04:48:45.227Z,58.40
2024-02-13T04:51:12.623Z,58.30
2024-02-13T04:53:40.574Z,58.30
2024-02-13T04:56:07.852Z,58.30
2024-02-13T04:58:35.327Z,58.40
2024-02-13T05:01:10.919Z,58.30
2024-02-13T05:03:44.398Z,58.20
2024-02-13T05:06:30.303Z,58.30
2024-02-13T05:08:57.546Z,58.30
2024-02-13T05:11:27.457Z,58.20
2024-02-13T05:13:57.529Z,58.20
2024-02-13T05:16:28.166Z,58.20
2024-02-13T05:18:56.171Z,58.10
2024-02-13T05:21:25.307Z,58.10
2024-02-13T05:23:52.709Z,58.80
2024-02-13T05:26:20.053Z,58.10
2024-02-13T05:28:48.893Z,58.10
2024-02-13T05:31:16.332Z,58.10
2024-02-13T05:33:44.016Z,58.10
2024-02-13T05:36:11.631Z,58.20
2024-02-13T05:38:45.405Z,58.00
2024-02-13T05:41:14.662Z,58.10
2024-02-13T05:43:42.711Z,58.00
2024-02-13T05:46:10.454Z,58.00
2024-02-13T05:48:37.912Z,58.00
2024-02-13T05:51:12.236Z,57.90
2024-02-13T05:53:43.876Z,58.00
2024-02-13T05:56:25.940Z,57.80
2024-02-13T05:58:57.367Z,57.80
2024-02-13T06:01:26.516Z,57.80
2024-02-13T06:03:57.315Z,57.90
2024-02-13T06:08:56.216Z,58.00
2024-02-13T06:11:25.340Z,58.90
2024-02-13T06:13:53.676Z,58.60
2024-02-13T06:16:21.130Z,58.70
2024-02-13T06:18:48.989Z,58.80
2024-02-13T06:21:23.549Z,58.80
2024-02-13T06:23:52.919Z,58.80
2024-02-13T06:26:20.627Z,59.10
2024-02-13T06:28:48.206Z,59.20
2024-02-13T06:31:15.763Z,59.40
2024-02-13T06:33:43.365Z,59.50
2024-02-13T06:36:11.766Z,59.90
2024-02-13T06:38:39.463Z,60.80
2024-02-13T06:41:07.338Z,68.40
2024-02-13T06:43:36.068Z,76.40
2024-02-13T06:46:04.559Z,61.80
2024-02-13T06:48:32.666Z,60.00
2024-02-13T06:51:00.299Z,58.50
2024-02-13T06:53:28.542Z,57.80
2024-02-13T06:55:55.874Z,57.80
2024-02-13T06:58:23.178Z,57.70
2024-02-13T07:00:50.881Z,58.30
2024-02-13T07:03:18.180Z,57.60
2024-02-13T07:05:45.466Z,57.70
2024-02-13T07:08:12.901Z,57.80
2024-02-13T07:10:40.190Z,57.80
2024-02-13T07:13:07.586Z,57.70
2024-02-13T07:15:36.745Z,57.60
2024-02-13T07:18:05.100Z,57.70
2024-02-13T07:20:32.601Z,57.60
2024-02-13T07:23:00.035Z,57.70
2024-02-13T07:25:27.283Z,57.80
2024-02-13T07:27:54.724Z,57.80
2024-02-13T07:30:23.461Z,58.00
2024-02-13T07:32:50.886Z,58.00
2024-02-13T07:35:18.440Z,58.10
2024-02-13T07:37:49.349Z,58.10
2024-02-13T07:40:16.870Z,58.10
2024-02-13T07:42:44.641Z,58.30
2024-02-13T07:45:14.839Z,58.50
2024-02-13T07:47:43.152Z,58.50
2024-02-13T07:50:11.512Z,58.60
2024-02-13T07:52:39.191Z,58.80
2024-02-13T07:55:07.404Z,58.70
2024-02-13T07:57:36.416Z,58.60
2024-02-13T08:00:05.574Z,58.50
2024-02-13T08:02:32.929Z,58.50
2024-02-13T08:05:01.193Z,58.40
2024-02-13T08:07:29.634Z,58.40
2024-02-13T08:09:57.320Z,58.20
2024-02-13T08:12:26.016Z,58.10
2024-02-13T08:14:53.709Z,59.40
2024-02-13T08:42:12.919Z,97.30
2024-02-13T08:44:40.215Z,92.90
2024-02-13T08:47:08.403Z,91.50
2024-02-13T08:49:36.014Z,91.10
2024-02-13T08:52:03.434Z,90.60
2024-02-13T08:54:30.662Z,90.30
2024-02-13T08:56:58.015Z,90.00
2024-02-13T08:59:25.446Z,89.40
2024-02-13T09:01:52.743Z,89.00
2024-02-13T09:04:20.238Z,89.00
2024-02-13T09:06:48.909Z,89.30
2024-02-13T09:09:16.586Z,89.60
2024-02-13T09:11:47.348Z,90.10
2024-02-13T09:14:14.774Z,57.40
2024-02-13T09:16:42.402Z,57.40
2024-02-13T09:19:09.875Z,57.50
2024-02-13T09:21:37.315Z,57.60
2024-02-13T09:24:06.174Z,57.70
2024-02-13T09:26:33.613Z,57.70
2024-02-13T09:29:03.036Z,57.60
2024-02-13T09:31:31.475Z,57.50
2024-02-13T09:33:58.851Z,57.70
2024-02-13T09:36:27.119Z,57.70
2024-02-13T09:38:55.243Z,57.50
2024-02-13T09:41:22.947Z,57.50
2024-02-13T09:43:51.688Z,57.70
2024-02-13T09:46:20.018Z,57.70
2024-02-13T09:48:50.912Z,57.50
2024-02-13T09:51:23.061Z,57.50
2024-02-13T09:53:52.203Z,57.40
2024-02-13T09:56:20.011Z,57.40
2024-02-13T09:58:59.372Z,57.40
2024-02-13T10:01:27.391Z,57.40
2024-02-13T10:03:54.757Z,57.30
2024-02-13T10:06:22.195Z,57.40
2024-02-13T10:08:54.686Z,57.30
2024-02-13T10:11:35.336Z,57.30
2024-02-13T10:14:04.395Z,57.30
2024-02-13T10:16:32.206Z,57.30
2024-02-13T10:19:03.607Z,57.20
2024-02-13T10:21:34.401Z,57.10
2024-02-13T10:24:14.199Z,57.10
2024-02-13T10:26:41.823Z,57.10
2024-02-13T10:29:10.313Z,56.90
2024-02-13T10:31:39.916Z,56.90
2024-02-13T10:34:11.140Z,56.90
2024-02-13T10:36:49.845Z,60.50
2024-02-13T10:39:22.593Z,65.30
2024-02-13T10:41:56.389Z,70.30
2024-02-13T10:44:25.208Z,77.30
2024-02-13T10:46:58.683Z,75.20
2024-02-13T10:49:43.667Z,75.20
2024-02-13T10:52:13.823Z,79.30
2024-02-13T10:54:48.683Z,71.40
2024-02-13T10:57:17.853Z,71.20
2024-02-13T10:59:48.711Z,73.70
2024-02-13T11:02:19.335Z,75.30
2024-02-13T11:04:49.685Z,78.30
2024-02-13T11:07:19.710Z,79.20
2024-02-13T11:09:47.333Z,75.80
2024-02-13T11:12:15.256Z,76.20
2024-02-13T11:14:42.858Z,56.50
2024-02-13T11:17:14.271Z,56.40
2024-02-13T11:19:49.733Z,56.40
2024-02-13T11:22:38.492Z,56.40
2024-02-13T11:25:12.547Z,56.40
2024-02-13T11:27:41.853Z,56.50
2024-02-13T11:30:09.703Z,56.50
2024-02-13T11:32:41.460Z,56.60
2024-02-13T11:35:12.088Z,56.70
2024-02-13T11:37:43.595Z,56.70
2024-02-13T11:40:16.667Z,56.80
2024-02-13T11:42:46.008Z,57.30
2024-02-13T11:45:32.533Z,56.80
2024-02-13T11:48:01.790Z,56.90
2024-02-13T11:50:30.511Z,56.80
2024-02-13T11:52:58.093Z,56.90
2024-02-13T11:55:26.381Z,56.80
2024-02-13T11:57:53.918Z,56.90
2024-02-13T12:00:22.343Z,56.90
2024-02-13T12:02:56.020Z,56.90
2024-02-13T12:05:26.377Z,56.80
2024-02-13T12:07:54.925Z,56.70
2024-02-13T12:10:23.002Z,56.70
2024-02-13T12:12:51.585Z,56.70
2024-02-13T12:15:24.057Z,56.90
2024-02-13T12:17:59.277Z,57.00
2024-02-13T12:20:30.998Z,57.00
2024-02-13T12:23:00.307Z,57.80
2024-02-13T12:25:27.560Z,57.20
2024-02-13T12:28:06.713Z,57.30
2024-02-13T12:30:37.213Z,57.40
2024-02-13T12:33:09.119Z,57.60
2024-02-13T12:35:38.258Z,57.70
2024-02-13T12:38:13.936Z,57.80
2024-02-13T12:40:43.888Z,57.80
2024-02-13T12:43:11.206Z,57.90
2024-02-13T12:45:48.020Z,57.80
2024-02-13T12:48:15.854Z,57.90
2024-02-13T12:50:43.541Z,57.90
2024-02-13T12:53:11.109Z,57.90
2024-02-13T12:55:42.583Z,57.90
2024-02-13T12:58:09.809Z,57.80
2024-02-13T13:00:37.237Z,58.00
2024-02-13T13:03:05.942Z,57.80
2024-02-13T13:05:33.451Z,57.70
2024-02-13T13:08:02.032Z,57.60
2024-02-13T13:10:29.354Z,57.60
2024-02-13T13:12:56.915Z,57.40
2024-02-13T13:15:25.728Z,57.50
2024-02-13T13:17:55.633Z,57.50
2024-02-13T13:20:25.584Z,57.40
2024-02-13T13:22:53.367Z,57.30
2024-02-13T13:25:32.104Z,57.10
2024-02-13T13:28:07.125Z,56.90
2024-02-13T13:30:34.745Z,56.60
2024-02-13T13:33:03.759Z,57.10
2024-02-13T13:35:32.596Z,57.60
2024-02-13T13:38:00.460Z,57.10
2024-02-13T13:40:38.605Z,57.10
2024-02-13T13:43:06.975Z,57.20
2024-02-13T13:45:34.644Z,57.20
2024-02-13T13:48:16.407Z,57.20
2024-02-13T13:50:46.800Z,57.20
2024-02-13T13:53:14.839Z,57.30
2024-02-13T13:55:42.199Z,57.30
2024-02-13T13:58:09.899Z,57.40
2024-02-13T14:00:46.958Z,57.50
2024-02-13T14:03:16.187Z,57.50
2024-02-13T14:05:46.579Z,57.50
2024-02-13T14:08:14.169Z,57.50
2024-02-13T14:10:43.354Z,57.50
2024-02-13T14:13:11.852Z,57.50
2024-02-13T14:15:40.343Z,57.50
2024-02-13T14:18:11.049Z,57.50
2024-02-13T14:20:40.876Z,57.90
2024-02-13T14:23:10.436Z,58.10
2024-02-13T14:25:38.524Z,58.00
2024-02-13T14:28:08.420Z,58.10
2024-02-13T14:30:35.774Z,58.20
2024-02-13T14:33:06.839Z,58.30
2024-02-13T14:35:35.605Z,58.50
2024-02-13T14:38:04.730Z,58.60
2024-02-13T14:40:33.184Z,59.20
2024-02-13T14:43:00.750Z,58.70
2024-02-13T14:45:28.358Z,58.90
2024-02-13T14:47:55.770Z,58.90
2024-02-13T14:50:27.338Z,58.90
2024-02-13T14:52:54.878Z,59.00
2024-02-13T14:55:22.261Z,59.00
2024-02-13T14:57:57.489Z,59.00
2024-02-13T15:00:34.241Z,59.10
2024-02-13T15:03:01.735Z,59.20
2024-02-13T15:05:29.432Z,59.10
2024-02-13T15:07:56.863Z,59.20
2024-02-13T15:10:27.767Z,59.00
2024-02-13T15:12:55.999Z,58.80
2024-02-13T15:15:27.471Z,58.60
2024-02-13T15:17:55.118Z,59.10
2024-02-13T15:20:22.689Z,59.20
2024-02-13T15:22:49.994Z,59.30
2024-02-13T15:25:17.232Z,59.10
2024-02-13T15:27:44.760Z,59.40
2024-02-13T15:30:13.928Z,59.50
2024-02-13T15:32:42.812Z,59.50
2024-02-13T15:35:11.481Z,59.70
2024-02-13T15:37:57.895Z,59.90
2024-02-13T15:40:43.798Z,60.00
2024-02-13T15:43:30.019Z,60.20
2024-02-13T15:46:15.765Z,60.40
2024-02-13T15:48:44.289Z,60.40
2024-02-13T15:51:15.007Z,60.70
2024-02-13T15:53:43.512Z,60.80
2024-02-13T15:56:11.492Z,60.80
2024-02-13T15:58:39.836Z,60.80
2024-02-13T16:01:07.965Z,60.90
2024-02-13T16:03:37.874Z,60.70
2024-02-13T16:06:05.687Z,60.60
2024-02-13T16:08:33.768Z,60.30
2024-02-13T16:11:01.480Z,60.50
2024-02-13T16:15:58.113Z,84.90
2024-02-13T16:18:25.771Z,63.00
2024-02-13T16:20:53.887Z,61.70
2024-02-13T16:23:21.957Z,62.00
2024-02-13T16:25:49.533Z,62.50
2024-02-13T16:28:17.159Z,62.60
2024-02-13T16:30:45.849Z,63.80
2024-02-13T16:33:14.896Z,64.00
2024-02-13T16:35:42.401Z,64.50
2024-02-13T16:38:09.659Z,64.60
2024-02-13T16:40:37.084Z,63.90
2024-02-13T16:43:06.027Z,64.70
2024-02-13T16:45:33.673Z,65.60
2024-02-13T16:48:01.259Z,66.80
2024-02-13T16:50:29.504Z,67.60
2024-02-13T16:52:56.860Z,69.40
2024-02-13T16:55:26.124Z,70.70
2024-02-13T16:57:54.966Z,90.40
2024-02-13T17:02:53.096Z,92.40
2024-02-13T17:05:20.533Z,92.70
2024-02-13T17:07:49.302Z,93.00
2024-02-13T17:10:17.652Z,93.40
2024-02-13T17:12:44.905Z,92.70
2024-02-13T17:15:14.419Z,92.40
2024-02-13T17:17:43.241Z,93.10
2024-02-13T17:20:13.421Z,93.60
2024-02-13T17:22:44.423Z,61.80
2024-02-13T17:25:13.092Z,61.70
2024-02-13T17:27:42.697Z,61.90
2024-02-13T17:30:16.545Z,61.80
2024-02-13T17:32:48.547Z,61.90
2024-02-13T17:35:16.928Z,62.10
2024-02-13T17:37:44.566Z,62.20
2024-02-13T17:40:14.520Z,62.00
2024-02-13T17:42:42.410Z,62.00
2024-02-13T17:45:10.347Z,62.10
2024-02-13T17:47:39.244Z,62.10
2024-02-13T17:50:09.556Z,62.00
2024-02-13T17:52:38.087Z,61.90
2024-02-13T17:55:09.396Z,62.20
2024-02-13T17:57:40.166Z,62.10
2024-02-13T18:00:08.978Z,62.00
2024-02-13T18:02:36.631Z,62.20
2024-02-13T18:05:06.376Z,62.20
2024-02-13T18:07:35.145Z,62.20
2024-02-13T18:10:05.284Z,62.30
2024-02-13T18:12:32.668Z,62.30
2024-02-13T18:15:00.657Z,62.10
2024-02-13T18:17:28.792Z,61.90
2024-02-13T18:19:56.220Z,61.80
2024-02-13T18:22:23.552Z,61.70
2024-02-13T18:24:51.464Z,61.60
2024-02-13T18:27:18.742Z,61.50
2024-02-13T18:29:47.254Z,61.50
2024-02-13T18:32:15.494Z,61.40
2024-02-13T18:34:46.456Z,61.40
2024-02-13T18:37:13.877Z,61.40
2024-02-13T18:39:41.147Z,61.40
2024-02-13T18:42:08.873Z,61.40
2024-02-13T18:44:37.850Z,61.40
2024-02-13T18:47:11.180Z,61.30
2024-02-13T18:49:39.258Z,61.20
2024-02-13T18:52:08.842Z,61.30
2024-02-13T18:54:39.803Z,61.00
2024-02-13T18:57:10.291Z,61.10
2024-02-13T18:59:37.950Z,61.10
2024-02-13T19:02:05.692Z,60.90
2024-02-13T19:04:33.062Z,60.60
2024-02-13T19:07:00.750Z,60.40
2024-02-13T19:09:31.515Z,60.30
2024-02-13T19:11:59.093Z,60.10
2024-02-13T19:14:26.746Z,60.00
2024-02-13T19:16:54.968Z,59.90
2024-02-13T19:19:23.044Z,59.80
2024-02-13T19:21:50.653Z,59.80
2024-02-13T19:24:18.084Z,59.80
2024-02-13T19:26:47.038Z,59.80
2024-02-13T19:29:14.565Z,59.70
2024-02-13T19:31:45.607Z,59.80
2024-02-13T19:34:13.770Z,59.80
2024-02-13T19:36:41.337Z,59.80
2024-02-13T19:39:08.869Z,59.80
2024-02-13T19:41:36.189Z,59.80
2024-02-13T19:44:03.836Z,59.80
2024-02-13T19:46:31.056Z,59.80
2024-02-13T19:48:58.548Z,59.70
2024-02-13T19:51:25.866Z,59.80
2024-02-13T19:53:54.600Z,59.80
2024-02-13T19:56:22.068Z,59.80
2024-02-13T19:58:51.059Z,59.70
2024-02-13T20:01:19.037Z,59.70
2024-02-13T20:03:50.087Z,59.90
2024-02-13T20:06:17.985Z,59.60
2024-02-13T20:08:48.384Z,59.60
2024-02-13T20:11:17.889Z,59.50
2024-02-13T20:13:48.105Z,59.50
2024-02-13T20:16:15.475Z,59.50
2024-02-13T20:18:43.524Z,59.30
2024-02-13T20:21:10.948Z,59.30
2024-02-13T20:23:39.488Z,59.20
2024-02-13T20:26:06.747Z,59.30
2024-02-13T20:28:34.592Z,59.40
2024-02-13T20:31:01.943Z,59.70
2024-02-13T20:33:32.918Z,59.90
2024-02-13T20:36:05.085Z,60.00
2024-02-13T20:38:32.495Z,59.90
2024-02-13T20:41:00.072Z,59.70
2024-02-13T20:43:30.458Z,59.70
2024-02-13T20:45:59.550Z,59.70
2024-02-13T20:48:27.458Z,59.80
2024-02-13T20:50:57.433Z,60.50
2024-02-13T20:53:24.871Z,59.80
2024-02-13T20:55:57.337Z,59.90
2024-02-13T20:58:25.482Z,59.80
2024-02-13T21:00:53.017Z,59.90
2024-02-13T21:03:21.345Z,60.00
2024-02-13T21:05:48.886Z,59.90
2024-02-13T21:08:16.400Z,59.80
2024-02-13T21:10:43.696Z,59.70
2024-02-13T21:13:11.101Z,60.20
2024-02-13T21:15:38.612Z,61.10
2024-02-13T21:18:07.776Z,61.30
2024-02-13T21:20:43.605Z,61.30
2024-02-13T21:23:30.757Z,61.40
2024-02-13T21:25:58.538Z,61.40
2024-02-13T21:28:27.863Z,61.20
2024-02-13T21:30:55.408Z,61.20
2024-02-13T21:33:24.212Z,61.10
2024-02-13T21:35:52.344Z,61.00
2024-02-13T21:38:19.833Z,61.00
2024-02-13T21:40:47.009Z,61.00
2024-02-13T21:43:14.440Z,62.00
2024-02-13T21:45:42.440Z,62.70
2024-02-13T21:48:11.208Z,63.10
2024-02-13T21:50:41.194Z,63.10
2024-02-13T21:53:09.151Z,63.10
2024-02-13T21:55:36.807Z,63.20
2024-02-13T21:58:05.261Z,63.00
2024-02-13T22:00:33.514Z,63.90
2024-02-13T22:03:06.925Z,64.20
2024-02-13T22:05:34.896Z,64.20
2024-02-13T22:08:02.483Z,64.00
2024-02-13T22:10:29.714Z,63.90
2024-02-13T22:12:57.675Z,63.60
2024-02-13T22:15:25.421Z,63.20
2024-02-13T22:17:53.085Z,63.00
2024-02-13T22:20:20.956Z,62.90
2024-02-13T22:22:48.393Z,62.80
2024-02-13T22:25:18.157Z,62.50
2024-02-13T22:27:48.181Z,62.60
2024-02-13T22:30:15.362Z,62.40
2024-02-13T22:32:44.675Z,62.30
2024-02-13T22:35:14.890Z,62.20
2024-02-13T22:37:43.179Z,62.10
2024-02-13T22:40:11.298Z,62.10
2024-02-13T22:42:38.864Z,61.90
2024-02-13T22:45:07.151Z,61.90
2024-02-13T22:47:38.730Z,61.70
2024-02-13T22:50:09.186Z,61.60
2024-02-13T22:52:36.736Z,61.50
2024-02-13T22:55:07.471Z,61.30
2024-02-13T22:57:34.785Z,61.30
2024-02-13T23:00:21.783Z,61.20
2024-02-13T23:02:49.882Z,61.10
2024-02-13T23:05:17.278Z,61.10
2024-02-13T23:07:44.644Z,61.10
2024-02-13T23:10:11.854Z,61.10
2024-02-13T23:12:39.150Z,61.00
2024-02-13T23:15:12.144Z,61.10
2024-02-13T23:17:39.999Z,61.10
2024-02-13T23:20:12.057Z,61.10
2024-02-13T23:22:40.491Z,61.10
2024-02-13T23:25:08.431Z,61.00
2024-02-13T23:27:35.754Z,61.00
2024-02-13T23:30:05.059Z,61.00
2024-02-13T23:32:32.597Z,60.90
2024-02-13T23:35:00.125Z,60.80
2024-02-13T23:37:27.735Z,60.90
2024-02-13T23:39:55.388Z,60.70
2024-02-13T23:42:23.232Z,60.60
2024-02-13T23:44:50.634Z,60.50
2024-02-13T23:47:18.654Z,60.50
2024-02-13T23:49:46.481Z,60.80
2024-02-13T23:52:14.110Z,60.50
2024-02-13T23:54:41.774Z,60.30
2024-02-13T23:57:11.033Z,60.30
2024-02-13T23:59:38.609Z,60.40
